sensor_id;sensor_type;location;lat;lon;timestamp;P1;durP1;ratioP1;P2;durP2;ratioP2
46589;SDS011;32313;48.722;9.362;2022-09-30T00:01:33;18.10;;;16.20;;
46589;SDS011;32313;48.722;9.362;2022-09-30T00:04:00;16.73;;;15.10;;
46589;SDS011;32313;48.722;9.362;2022-09-30T00:06:26;17.20;;;15.40;;
46589;SDS011;32313;48.722;9.362;2022-09-30T00:08:53;16.17;;;14.67;;
46589;SDS011;32313;48.722;9.362;2022-09-30T00:11:21;17.30;;;15.53;;
46589;SDS011;32313;48.722;9.362;2022-09-30T00:13:50;18.23;;;16.33;;
46589;SDS011;32313;48.722;9.362;2022-09-30T00:16:17;18.37;;;15.60;;
46589;SDS011;32313;48.722;9.362;2022-09-30T00:18:45;17.23;;;14.10;;
46589;SDS011;32313;48.722;9.362;2022-09-30T00:21:11;17.10;;;15.40;;
46589;SDS011;32313;48.722;9.362;2022-09-30T00:23:39;17.33;;;15.53;;
46589;SDS011;32313;48.722;9.362;2022-09-30T00:26:07;16.23;;;14.60;;
46589;SDS011;32313;48.722;9.362;2022-09-30T00:28:36;18.07;;;16.27;;
46589;SDS011;32313;48.722;9.362;2022-09-30T00:31:03;17.53;;;15.50;;
46589;SDS011;32313;48.722;9.362;2022-09-30T00:33:30;17.63;;;15.83;;
46589;SDS011;32313;48.722;9.362;2022-09-30T00:35:56;17.60;;;15.80;;
46589;SDS011;32313;48.722;9.362;2022-09-30T00:38:22;18.20;;;16.30;;
46589;SDS011;32313;48.722;9.362;2022-09-30T00:40:48;18.50;;;16.60;;
46589;SDS011;32313;48.722;9.362;2022-09-30T00:43:15;19.47;;;17.37;;
46589;SDS011;32313;48.722;9.362;2022-09-30T00:45:50;17.83;;;15.93;;
46589;SDS011;32313;48.722;9.362;2022-09-30T00:48:22;17.53;;;15.40;;
46589;SDS011;32313;48.722;9.362;2022-09-30T00:50:59;18.57;;;16.47;;
46589;SDS011;32313;48.722;9.362;2022-09-30T00:53:27;16.93;;;15.13;;
46589;SDS011;32313;48.722;9.362;2022-09-30T00:56:06;17.20;;;15.60;;
46589;SDS011;32313;48.722;9.362;2022-09-30T01:01:04;21.07;;;18.83;;
46589;SDS011;32313;48.722;9.362;2022-09-30T01:03:30;21.53;;;18.50;;
46589;SDS011;32313;48.722;9.362;2022-09-30T01:06:00;19.13;;;17.13;;
46589;SDS011;32313;48.722;9.362;2022-09-30T01:08:27;18.20;;;16.10;;
46589;SDS011;32313;48.722;9.362;2022-09-30T01:10:54;16.73;;;15.07;;
46589;SDS011;32313;48.722;9.362;2022-09-30T01:13:20;16.60;;;14.90;;
46589;SDS011;32313;48.722;9.362;2022-09-30T01:22:07;22.20;;;15.97;;
46589;SDS011;32313;48.722;9.362;2022-09-30T01:30:22;18.63;;;16.63;;
46589;SDS011;32313;48.722;9.362;2022-09-30T01:39:14;18.37;;;15.60;;
46589;SDS011;32313;48.722;9.362;2022-09-30T01:41:43;16.07;;;14.20;;
46589;SDS011;32313;48.722;9.362;2022-09-30T01:47:07;22.57;;;17.47;;
46589;SDS011;32313;48.722;9.362;2022-09-30T01:50:12;17.27;;;15.60;;
46589;SDS011;32313;48.722;9.362;2022-09-30T01:58:15;19.67;;;15.83;;
46589;SDS011;32313;48.722;9.362;2022-09-30T02:00:52;16.73;;;13.87;;
46589;SDS011;32313;48.722;9.362;2022-09-30T02:06:14;19.97;;;15.93;;
46589;SDS011;32313;48.722;9.362;2022-09-30T02:11:17;16.87;;;15.00;;
46589;SDS011;32313;48.722;9.362;2022-09-30T02:13:58;17.47;;;14.37;;
46589;SDS011;32313;48.722;9.362;2022-09-30T02:16:26;19.93;;;15.03;;
46589;SDS011;32313;48.722;9.362;2022-09-30T02:19:02;17.60;;;15.37;;
46589;SDS011;32313;48.722;9.362;2022-09-30T02:21:52;21.33;;;17.43;;
46589;SDS011;32313;48.722;9.362;2022-09-30T02:24:23;23.43;;;17.17;;
46589;SDS011;32313;48.722;9.362;2022-09-30T02:26:56;20.80;;;17.57;;
46589;SDS011;32313;48.722;9.362;2022-09-30T02:29:26;20.47;;;16.93;;
46589;SDS011;32313;48.722;9.362;2022-09-30T02:31:56;20.30;;;17.17;;
46589;SDS011;32313;48.722;9.362;2022-09-30T02:34:29;20.13;;;17.13;;
46589;SDS011;32313;48.722;9.362;2022-09-30T02:37:19;17.60;;;15.80;;
46589;SDS011;32313;48.722;9.362;2022-09-30T02:39:53;19.33;;;16.97;;
46589;SDS011;32313;48.722;9.362;2022-09-30T02:42:26;20.80;;;18.20;;
46589;SDS011;32313;48.722;9.362;2022-09-30T02:44:55;20.00;;;17.20;;
46589;SDS011;32313;48.722;9.362;2022-09-30T02:53:10;28.70;;;20.10;;
46589;SDS011;32313;48.722;9.362;2022-09-30T02:58:33;28.13;;;19.90;;
46589;SDS011;32313;48.722;9.362;2022-09-30T03:01:07;24.63;;;19.40;;
46589;SDS011;32313;48.722;9.362;2022-09-30T03:03:56;22.07;;;18.73;;
46589;SDS011;32313;48.722;9.362;2022-09-30T03:06:24;19.90;;;16.70;;
46589;SDS011;32313;48.722;9.362;2022-09-30T03:08:51;30.27;;;27.27;;
46589;SDS011;32313;48.722;9.362;2022-09-30T03:11:18;22.53;;;18.97;;
46589;SDS011;32313;48.722;9.362;2022-09-30T03:29:59;20.33;;;18.13;;
46589;SDS011;32313;48.722;9.362;2022-09-30T03:33:11;19.27;;;17.27;;
46589;SDS011;32313;48.722;9.362;2022-09-30T03:35:42;18.67;;;16.77;;
46589;SDS011;32313;48.722;9.362;2022-09-30T03:43:50;18.07;;;16.17;;
46589;SDS011;32313;48.722;9.362;2022-09-30T03:46:29;21.03;;;18.43;;
46589;SDS011;32313;48.722;9.362;2022-09-30T03:49:10;20.63;;;18.23;;
46589;SDS011;32313;48.722;9.362;2022-09-30T03:51:39;20.07;;;17.17;;
46589;SDS011;32313;48.722;9.362;2022-09-30T03:54:07;20.23;;;17.97;;
46589;SDS011;32313;48.722;9.362;2022-09-30T03:56:34;19.20;;;16.47;;
46589;SDS011;32313;48.722;9.362;2022-09-30T03:59:25;21.40;;;17.37;;
46589;SDS011;32313;48.722;9.362;2022-09-30T04:01:54;18.57;;;16.20;;
46589;SDS011;32313;48.722;9.362;2022-09-30T04:04:23;18.30;;;16.40;;
46589;SDS011;32313;48.722;9.362;2022-09-30T04:06:49;21.03;;;16.57;;
46589;SDS011;32313;48.722;9.362;2022-09-30T04:09:15;19.07;;;16.83;;
46589;SDS011;32313;48.722;9.362;2022-09-30T04:11:40;23.03;;;19.40;;
46589;SDS011;32313;48.722;9.362;2022-09-30T04:14:06;19.60;;;17.13;;
46589;SDS011;32313;48.722;9.362;2022-09-30T04:16:32;19.63;;;17.53;;
46589;SDS011;32313;48.722;9.362;2022-09-30T04:18:58;19.10;;;17.23;;
46589;SDS011;32313;48.722;9.362;2022-09-30T04:21:24;19.80;;;16.90;;
46589;SDS011;32313;48.722;9.362;2022-09-30T04:23:53;20.30;;;18.20;;
46589;SDS011;32313;48.722;9.362;2022-09-30T04:26:19;20.97;;;18.77;;
46589;SDS011;32313;48.722;9.362;2022-09-30T04:28:45;22.37;;;19.80;;
46589;SDS011;32313;48.722;9.362;2022-09-30T04:31:11;25.87;;;21.00;;
46589;SDS011;32313;48.722;9.362;2022-09-30T04:33:38;21.57;;;19.27;;
46589;SDS011;32313;48.722;9.362;2022-09-30T04:36:04;23.13;;;20.63;;
46589;SDS011;32313;48.722;9.362;2022-09-30T04:38:31;20.80;;;18.60;;
46589;SDS011;32313;48.722;9.362;2022-09-30T04:41:00;22.23;;;19.80;;
46589;SDS011;32313;48.722;9.362;2022-09-30T04:43:27;22.47;;;19.30;;
46589;SDS011;32313;48.722;9.362;2022-09-30T04:45:54;24.13;;;20.90;;
46589;SDS011;32313;48.722;9.362;2022-09-30T04:48:20;26.87;;;20.43;;
46589;SDS011;32313;48.722;9.362;2022-09-30T04:50:46;22.30;;;19.20;;
46589;SDS011;32313;48.722;9.362;2022-09-30T04:53:13;21.57;;;18.57;;
46589;SDS011;32313;48.722;9.362;2022-09-30T04:55:40;23.10;;;19.47;;
46589;SDS011;32313;48.722;9.362;2022-09-30T04:58:06;20.93;;;18.63;;
46589;SDS011;32313;48.722;9.362;2022-09-30T05:00:31;26.20;;;20.80;;
46589;SDS011;32313;48.722;9.362;2022-09-30T05:02:57;24.20;;;20.93;;
46589;SDS011;32313;48.722;9.362;2022-09-30T05:05:23;25.47;;;19.77;;
46589;SDS011;32313;48.722;9.362;2022-09-30T05:07:48;26.63;;;21.60;;
46589;SDS011;32313;48.722;9.362;2022-09-30T05:10:14;23.97;;;20.90;;
46589;SDS011;32313;48.722;9.362;2022-09-30T05:12:40;22.40;;;19.33;;
46589;SDS011;32313;48.722;9.362;2022-09-30T05:15:06;27.17;;;22.73;;
46589;SDS011;32313;48.722;9.362;2022-09-30T05:17:33;27.67;;;22.10;;
46589;SDS011;32313;48.722;9.362;2022-09-30T05:19:59;27.33;;;21.83;;
46589;SDS011;32313;48.722;9.362;2022-09-30T05:22:26;29.27;;;22.27;;
46589;SDS011;32313;48.722;9.362;2022-09-30T05:24:52;27.60;;;21.43;;
46589;SDS011;32313;48.722;9.362;2022-09-30T05:27:20;32.33;;;23.83;;
46589;SDS011;32313;48.722;9.362;2022-09-30T05:29:46;30.30;;;22.87;;
46589;SDS011;32313;48.722;9.362;2022-09-30T05:32:12;31.80;;;22.83;;
46589;SDS011;32313;48.722;9.362;2022-09-30T05:34:38;33.70;;;24.17;;
46589;SDS011;32313;48.722;9.362;2022-09-30T05:37:04;29.73;;;22.67;;
46589;SDS011;32313;48.722;9.362;2022-09-30T05:39:30;31.73;;;24.17;;
46589;SDS011;32313;48.722;9.362;2022-09-30T05:41:56;33.67;;;24.53;;
46589;SDS011;32313;48.722;9.362;2022-09-30T05:44:22;37.83;;;24.80;;
46589;SDS011;32313;48.722;9.362;2022-09-30T05:46:48;34.87;;;25.87;;
46589;SDS011;32313;48.722;9.362;2022-09-30T05:49:14;38.57;;;27.60;;
46589;SDS011;32313;48.722;9.362;2022-09-30T05:51:40;36.70;;;26.67;;
46589;SDS011;32313;48.722;9.362;2022-09-30T05:54:05;40.53;;;26.73;;
46589;SDS011;32313;48.722;9.362;2022-09-30T05:56:31;34.47;;;26.20;;
46589;SDS011;32313;48.722;9.362;2022-09-30T05:58:58;33.03;;;25.03;;
46589;SDS011;32313;48.722;9.362;2022-09-30T06:01:25;33.93;;;24.87;;
46589;SDS011;32313;48.722;9.362;2022-09-30T06:03:51;32.00;;;25.47;;
46589;SDS011;32313;48.722;9.362;2022-09-30T06:06:17;41.00;;;29.27;;
46589;SDS011;32313;48.722;9.362;2022-09-30T06:08:46;37.67;;;27.17;;
46589;SDS011;32313;48.722;9.362;2022-09-30T06:11:13;29.73;;;23.87;;
46589;SDS011;32313;48.722;9.362;2022-09-30T06:13:40;33.40;;;26.03;;
46589;SDS011;32313;48.722;9.362;2022-09-30T06:16:07;36.63;;;25.93;;
46589;SDS011;32313;48.722;9.362;2022-09-30T06:18:34;30.50;;;23.13;;
46589;SDS011;32313;48.722;9.362;2022-09-30T06:21:01;27.97;;;23.23;;
46589;SDS011;32313;48.722;9.362;2022-09-30T06:23:28;27.60;;;22.53;;
46589;SDS011;32313;48.722;9.362;2022-09-30T06:25:55;25.87;;;21.70;;
46589;SDS011;32313;48.722;9.362;2022-09-30T06:28:21;36.57;;;25.13;;
46589;SDS011;32313;48.722;9.362;2022-09-30T06:30:47;36.87;;;27.57;;
46589;SDS011;32313;48.722;9.362;2022-09-30T06:33:14;34.23;;;25.37;;
46589;SDS011;32313;48.722;9.362;2022-09-30T06:35:40;42.73;;;30.43;;
46589;SDS011;32313;48.722;9.362;2022-09-30T06:38:07;40.33;;;28.30;;
46589;SDS011;32313;48.722;9.362;2022-09-30T06:40:36;42.43;;;30.27;;
46589;SDS011;32313;48.722;9.362;2022-09-30T06:43:02;38.10;;;27.67;;
46589;SDS011;32313;48.722;9.362;2022-09-30T06:45:28;35.47;;;26.97;;
46589;SDS011;32313;48.722;9.362;2022-09-30T06:48:00;38.43;;;28.60;;
46589;SDS011;32313;48.722;9.362;2022-09-30T06:50:28;36.80;;;26.80;;
46589;SDS011;32313;48.722;9.362;2022-09-30T06:53:02;35.43;;;26.53;;
46589;SDS011;32313;48.722;9.362;2022-09-30T06:55:33;41.00;;;29.17;;
46589;SDS011;32313;48.722;9.362;2022-09-30T06:58:03;37.47;;;27.33;;
46589;SDS011;32313;48.722;9.362;2022-09-30T07:00:32;35.27;;;26.20;;
46589;SDS011;32313;48.722;9.362;2022-09-30T07:02:58;44.80;;;29.93;;
46589;SDS011;32313;48.722;9.362;2022-09-30T07:05:24;35.77;;;24.17;;
46589;SDS011;32313;48.722;9.362;2022-09-30T07:07:50;45.80;;;29.33;;
46589;SDS011;32313;48.722;9.362;2022-09-30T07:10:17;43.63;;;28.23;;
46589;SDS011;32313;48.722;9.362;2022-09-30T07:12:47;47.77;;;31.03;;
46589;SDS011;32313;48.722;9.362;2022-09-30T07:15:17;73.40;;;42.07;;
46589;SDS011;32313;48.722;9.362;2022-09-30T07:17:49;73.83;;;40.37;;
46589;SDS011;32313;48.722;9.362;2022-09-30T07:20:16;74.63;;;42.37;;
46589;SDS011;32313;48.722;9.362;2022-09-30T07:22:42;61.03;;;37.10;;
46589;SDS011;32313;48.722;9.362;2022-09-30T07:25:07;55.60;;;38.03;;
46589;SDS011;32313;48.722;9.362;2022-09-30T07:27:35;51.40;;;35.20;;
46589;SDS011;32313;48.722;9.362;2022-09-30T07:30:01;40.80;;;30.83;;
46589;SDS011;32313;48.722;9.362;2022-09-30T07:32:28;44.90;;;32.03;;
46589;SDS011;32313;48.722;9.362;2022-09-30T07:34:54;47.50;;;34.30;;
46589;SDS011;32313;48.722;9.362;2022-09-30T07:37:19;42.47;;;31.93;;
46589;SDS011;32313;48.722;9.362;2022-09-30T07:39:46;37.07;;;29.40;;
46589;SDS011;32313;48.722;9.362;2022-09-30T07:42:13;37.90;;;29.70;;
46589;SDS011;32313;48.722;9.362;2022-09-30T07:44:40;35.73;;;28.77;;
46589;SDS011;32313;48.722;9.362;2022-09-30T07:47:08;32.60;;;26.70;;
46589;SDS011;32313;48.722;9.362;2022-09-30T07:49:39;32.77;;;25.40;;
46589;SDS011;32313;48.722;9.362;2022-09-30T07:52:07;28.60;;;24.87;;
46589;SDS011;32313;48.722;9.362;2022-09-30T07:54:34;26.20;;;23.43;;
46589;SDS011;32313;48.722;9.362;2022-09-30T07:57:01;32.77;;;26.43;;
46589;SDS011;32313;48.722;9.362;2022-09-30T07:59:28;23.97;;;21.40;;
46589;SDS011;32313;48.722;9.362;2022-09-30T08:01:55;25.43;;;21.67;;
46589;SDS011;32313;48.722;9.362;2022-09-30T08:04:21;21.70;;;19.50;;
46589;SDS011;32313;48.722;9.362;2022-09-30T08:06:52;24.87;;;20.73;;
46589;SDS011;32313;48.722;9.362;2022-09-30T08:09:21;22.63;;;19.23;;
46589;SDS011;32313;48.722;9.362;2022-09-30T08:11:48;21.70;;;18.67;;
46589;SDS011;32313;48.722;9.362;2022-09-30T08:14:21;19.57;;;16.50;;
46589;SDS011;32313;48.722;9.362;2022-09-30T08:16:49;19.43;;;16.53;;
46589;SDS011;32313;48.722;9.362;2022-09-30T08:19:17;17.80;;;16.10;;
46589;SDS011;32313;48.722;9.362;2022-09-30T08:21:44;17.13;;;15.23;;
46589;SDS011;32313;48.722;9.362;2022-09-30T08:24:10;17.37;;;14.97;;
46589;SDS011;32313;48.722;9.362;2022-09-30T08:26:37;16.67;;;15.00;;
46589;SDS011;32313;48.722;9.362;2022-09-30T08:29:03;16.60;;;14.90;;
46589;SDS011;32313;48.722;9.362;2022-09-30T08:31:29;18.37;;;14.60;;
46589;SDS011;32313;48.722;9.362;2022-09-30T08:33:57;16.53;;;14.90;;
46589;SDS011;32313;48.722;9.362;2022-09-30T08:36:24;17.87;;;15.97;;
46589;SDS011;32313;48.722;9.362;2022-09-30T08:38:51;16.70;;;15.00;;
46589;SDS011;32313;48.722;9.362;2022-09-30T08:41:23;17.43;;;15.67;;
46589;SDS011;32313;48.722;9.362;2022-09-30T08:52:17;15.47;;;13.93;;
46589;SDS011;32313;48.722;9.362;2022-09-30T08:54:51;16.17;;;14.40;;
46589;SDS011;32313;48.722;9.362;2022-09-30T08:57:19;15.73;;;14.27;;
46589;SDS011;32313;48.722;9.362;2022-09-30T08:59:47;17.27;;;14.67;;
46589;SDS011;32313;48.722;9.362;2022-09-30T09:02:32;15.73;;;14.03;;
46589;SDS011;32313;48.722;9.362;2022-09-30T09:05:05;15.30;;;13.80;;
46589;SDS011;32313;48.722;9.362;2022-09-30T09:07:39;15.70;;;13.17;;
46589;SDS011;32313;48.722;9.362;2022-09-30T09:18:43;14.67;;;12.97;;
46589;SDS011;32313;48.722;9.362;2022-09-30T09:23:59;12.17;;;10.97;;
46589;SDS011;32313;48.722;9.362;2022-09-30T09:26:28;12.90;;;11.60;;
46589;SDS011;32313;48.722;9.362;2022-09-30T09:29:14;12.03;;;10.83;;
46589;SDS011;32313;48.722;9.362;2022-09-30T09:32:15;11.47;;;10.00;;
46589;SDS011;32313;48.722;9.362;2022-09-30T09:34:42;11.43;;;10.23;;
46589;SDS011;32313;48.722;9.362;2022-09-30T09:37:15;10.40;;;9.27;;
46589;SDS011;32313;48.722;9.362;2022-09-30T09:40:14;11.50;;;9.40;;
46589;SDS011;32313;48.722;9.362;2022-09-30T09:45:48;11.27;;;10.07;;
46589;SDS011;32313;48.722;9.362;2022-09-30T09:48:17;8.80;;;7.90;;
46589;SDS011;32313;48.722;9.362;2022-09-30T09:56:16;8.60;;;7.87;;
46589;SDS011;32313;48.722;9.362;2022-09-30T09:59:28;8.40;;;7.60;;
46589;SDS011;32313;48.722;9.362;2022-09-30T10:01:48;9.77;;;8.87;;
46589;SDS011;32313;48.722;9.362;2022-09-30T10:06:50;7.17;;;6.47;;
46589;SDS011;32313;48.722;9.362;2022-09-30T10:09:26;6.77;;;6.17;;
46589;SDS011;32313;48.722;9.362;2022-09-30T10:14:30;5.73;;;5.30;;
46589;SDS011;32313;48.722;9.362;2022-09-30T10:17:16;7.00;;;6.27;;
46589;SDS011;32313;48.722;9.362;2022-09-30T10:19:51;6.00;;;5.50;;
46589;SDS011;32313;48.722;9.362;2022-09-30T10:22:19;5.57;;;5.03;;
46589;SDS011;32313;48.722;9.362;2022-09-30T10:24:51;6.17;;;5.23;;
46589;SDS011;32313;48.722;9.362;2022-09-30T10:27:32;5.03;;;4.60;;
46589;SDS011;32313;48.722;9.362;2022-09-30T10:29:59;5.13;;;4.17;;
46589;SDS011;32313;48.722;9.362;2022-09-30T10:32:25;4.50;;;3.50;;
46589;SDS011;32313;48.722;9.362;2022-09-30T10:34:53;4.00;;;3.57;;
46589;SDS011;32313;48.722;9.362;2022-09-30T10:37:26;3.17;;;2.83;;
46589;SDS011;32313;48.722;9.362;2022-09-30T10:39:55;3.77;;;2.93;;
46589;SDS011;32313;48.722;9.362;2022-09-30T10:42:25;2.90;;;2.70;;
46589;SDS011;32313;48.722;9.362;2022-09-30T10:45:00;3.20;;;2.90;;
46589;SDS011;32313;48.722;9.362;2022-09-30T10:47:43;2.57;;;2.10;;
46589;SDS011;32313;48.722;9.362;2022-09-30T10:50:13;2.47;;;2.20;;
46589;SDS011;32313;48.722;9.362;2022-09-30T10:55:32;2.50;;;2.30;;
46589;SDS011;32313;48.722;9.362;2022-09-30T10:58:19;2.33;;;2.07;;
46589;SDS011;32313;48.722;9.362;2022-09-30T11:00:46;3.00;;;2.13;;
46589;SDS011;32313;48.722;9.362;2022-09-30T11:03:17;3.43;;;2.30;;
46589;SDS011;32313;48.722;9.362;2022-09-30T11:05:47;4.13;;;2.40;;
46589;SDS011;32313;48.722;9.362;2022-09-30T11:08:18;2.20;;;1.97;;
46589;SDS011;32313;48.722;9.362;2022-09-30T11:13:27;2.80;;;2.20;;
46589;SDS011;32313;48.722;9.362;2022-09-30T11:16:05;2.57;;;2.37;;
46589;SDS011;32313;48.722;9.362;2022-09-30T11:19:01;2.90;;;2.07;;
46589;SDS011;32313;48.722;9.362;2022-09-30T11:21:42;2.70;;;2.50;;
46589;SDS011;32313;48.722;9.362;2022-09-30T11:24:22;2.47;;;2.00;;
46589;SDS011;32313;48.722;9.362;2022-09-30T11:29:53;2.77;;;2.20;;
46589;SDS011;32313;48.722;9.362;2022-09-30T11:32:29;4.17;;;2.60;;
46589;SDS011;32313;48.722;9.362;2022-09-30T11:36:12;2.50;;;2.30;;
46589;SDS011;32313;48.722;9.362;2022-09-30T11:41:29;2.97;;;2.10;;
46589;SDS011;32313;48.722;9.362;2022-09-30T11:49:54;2.90;;;2.33;;
46589;SDS011;32313;48.722;9.362;2022-09-30T11:54:55;4.73;;;1.97;;
46589;SDS011;32313;48.722;9.362;2022-09-30T12:00:40;1.43;;;1.30;;
46589;SDS011;32313;48.722;9.362;2022-09-30T12:03:14;1.60;;;1.40;;
46589;SDS011;32313;48.722;9.362;2022-09-30T12:05:58;2.40;;;1.63;;
46589;SDS011;32313;48.722;9.362;2022-09-30T12:11:09;2.00;;;1.70;;
46589;SDS011;32313;48.722;9.362;2022-09-30T12:13:42;3.60;;;1.90;;
46589;SDS011;32313;48.722;9.362;2022-09-30T12:16:15;1.63;;;1.40;;
46589;SDS011;32313;48.722;9.362;2022-09-30T12:18:50;2.97;;;1.60;;
46589;SDS011;32313;48.722;9.362;2022-09-30T12:21:22;2.20;;;1.70;;
46589;SDS011;32313;48.722;9.362;2022-09-30T12:24:15;2.20;;;1.50;;
46589;SDS011;32313;48.722;9.362;2022-09-30T12:26:48;1.80;;;1.60;;
46589;SDS011;32313;48.722;9.362;2022-09-30T12:29:19;1.93;;;1.53;;
46589;SDS011;32313;48.722;9.362;2022-09-30T12:48:45;2.47;;;1.53;;
46589;SDS011;32313;48.722;9.362;2022-09-30T12:51:19;1.83;;;1.60;;
46589;SDS011;32313;48.722;9.362;2022-09-30T12:54:18;2.33;;;1.57;;
46589;SDS011;32313;48.722;9.362;2022-09-30T12:56:58;3.10;;;1.50;;
46589;SDS011;32313;48.722;9.362;2022-09-30T12:59:32;1.97;;;1.60;;
46589;SDS011;32313;48.722;9.362;2022-09-30T13:02:00;1.60;;;1.30;;
46589;SDS011;32313;48.722;9.362;2022-09-30T13:09:29;3.20;;;1.70;;
46589;SDS011;32313;48.722;9.362;2022-09-30T13:14:35;1.20;;;1.08;;
46589;SDS011;32313;48.722;9.362;2022-09-30T13:19:37;1.73;;;1.30;;
46589;SDS011;32313;48.722;9.362;2022-09-30T13:32:44;2.08;;;1.33;;
46589;SDS011;32313;48.722;9.362;2022-09-30T13:40:57;2.07;;;1.53;;
46589;SDS011;32313;48.722;9.362;2022-09-30T13:48:59;2.50;;;1.30;;
46589;SDS011;32313;48.722;9.362;2022-09-30T13:51:34;1.70;;;1.20;;
46589;SDS011;32313;48.722;9.362;2022-09-30T13:54:10;1.93;;;1.27;;
46589;SDS011;32313;48.722;9.362;2022-09-30T13:56:50;1.70;;;1.30;;
46589;SDS011;32313;48.722;9.362;2022-09-30T13:59:28;1.33;;;1.23;;
46589;SDS011;32313;48.722;9.362;2022-09-30T14:02:26;1.43;;;1.03;;
46589;SDS011;32313;48.722;9.362;2022-09-30T14:22:25;0.93;;;0.90;;
46589;SDS011;32313;48.722;9.362;2022-09-30T14:24:54;2.20;;;1.50;;
46589;SDS011;32313;48.722;9.362;2022-09-30T14:32:31;1.30;;;1.20;;
46589;SDS011;32313;48.722;9.362;2022-09-30T14:35:07;1.67;;;1.30;;
46589;SDS011;32313;48.722;9.362;2022-09-30T14:40:48;2.17;;;1.20;;
46589;SDS011;32313;48.722;9.362;2022-09-30T14:43:16;1.63;;;1.20;;
46589;SDS011;32313;48.722;9.362;2022-09-30T14:45:53;1.50;;;1.20;;
46589;SDS011;32313;48.722;9.362;2022-09-30T14:48:23;2.27;;;1.40;;
46589;SDS011;32313;48.722;9.362;2022-09-30T14:53:30;1.63;;;1.20;;
46589;SDS011;32313;48.722;9.362;2022-09-30T14:56:00;1.73;;;1.30;;
46589;SDS011;32313;48.722;9.362;2022-09-30T15:03:29;2.17;;;1.40;;
46589;SDS011;32313;48.722;9.362;2022-09-30T15:05:56;1.70;;;1.50;;
46589;SDS011;32313;48.722;9.362;2022-09-30T15:08:22;1.80;;;1.40;;
46589;SDS011;32313;48.722;9.362;2022-09-30T15:10:50;1.57;;;1.33;;
46589;SDS011;32313;48.722;9.362;2022-09-30T15:13:18;1.50;;;1.40;;
46589;SDS011;32313;48.722;9.362;2022-09-30T15:15:47;1.57;;;1.27;;
46589;SDS011;32313;48.722;9.362;2022-09-30T15:18:29;2.23;;;1.30;;
46589;SDS011;32313;48.722;9.362;2022-09-30T15:21:03;2.40;;;1.43;;
46589;SDS011;32313;48.722;9.362;2022-09-30T15:23:35;1.40;;;1.30;;
46589;SDS011;32313;48.722;9.362;2022-09-30T15:26:03;1.10;;;0.93;;
46589;SDS011;32313;48.722;9.362;2022-09-30T15:28:30;2.30;;;1.50;;
46589;SDS011;32313;48.722;9.362;2022-09-30T15:30:59;1.87;;;1.20;;
46589;SDS011;32313;48.722;9.362;2022-09-30T15:33:25;1.60;;;1.20;;
46589;SDS011;32313;48.722;9.362;2022-09-30T15:38:51;4.47;;;1.50;;
46589;SDS011;32313;48.722;9.362;2022-09-30T15:41:17;4.33;;;1.60;;
46589;SDS011;32313;48.722;9.362;2022-09-30T15:43:43;4.90;;;1.40;;
46589;SDS011;32313;48.722;9.362;2022-09-30T15:46:19;1.73;;;1.50;;
46589;SDS011;32313;48.722;9.362;2022-09-30T15:48:51;3.73;;;1.37;;
46589;SDS011;32313;48.722;9.362;2022-09-30T15:53:49;1.97;;;1.60;;
46589;SDS011;32313;48.722;9.362;2022-09-30T15:59:03;5.00;;;1.57;;
46589;SDS011;32313;48.722;9.362;2022-09-30T16:01:39;2.03;;;1.80;;
46589;SDS011;32313;48.722;9.362;2022-09-30T16:06:42;2.17;;;1.70;;
46589;SDS011;32313;48.722;9.362;2022-09-30T16:11:42;2.90;;;1.60;;
46589;SDS011;32313;48.722;9.362;2022-09-30T16:14:19;3.63;;;2.00;;
46589;SDS011;32313;48.722;9.362;2022-09-30T16:16:48;3.73;;;2.50;;
46589;SDS011;32313;48.722;9.362;2022-09-30T16:19:17;2.73;;;2.07;;
46589;SDS011;32313;48.722;9.362;2022-09-30T16:21:44;2.43;;;2.03;;
46589;SDS011;32313;48.722;9.362;2022-09-30T16:26:47;2.37;;;2.10;;
46589;SDS011;32313;48.722;9.362;2022-09-30T16:29:13;4.60;;;2.40;;
46589;SDS011;32313;48.722;9.362;2022-09-30T16:31:40;4.60;;;2.67;;
46589;SDS011;32313;48.722;9.362;2022-09-30T16:37:03;4.37;;;2.83;;
46589;SDS011;32313;48.722;9.362;2022-09-30T16:39:35;9.20;;;2.70;;
46589;SDS011;32313;48.722;9.362;2022-09-30T16:42:00;3.10;;;2.77;;
46589;SDS011;32313;48.722;9.362;2022-09-30T16:44:28;5.57;;;3.10;;
46589;SDS011;32313;48.722;9.362;2022-09-30T16:47:01;3.87;;;2.93;;
46589;SDS011;32313;48.722;9.362;2022-09-30T16:49:27;5.70;;;2.77;;
46589;SDS011;32313;48.722;9.362;2022-09-30T16:51:53;5.93;;;3.53;;
46589;SDS011;32313;48.722;9.362;2022-09-30T16:54:18;6.27;;;3.20;;
46589;SDS011;32313;48.722;9.362;2022-09-30T16:56:44;3.40;;;3.10;;
46589;SDS011;32313;48.722;9.362;2022-09-30T16:59:13;4.00;;;3.60;;
46589;SDS011;32313;48.722;9.362;2022-09-30T17:01:40;4.70;;;3.43;;
46589;SDS011;32313;48.722;9.362;2022-09-30T17:04:07;8.03;;;3.90;;
46589;SDS011;32313;48.722;9.362;2022-09-30T17:06:34;7.03;;;3.87;;
46589;SDS011;32313;48.722;9.362;2022-09-30T17:09:01;7.10;;;3.97;;
46589;SDS011;32313;48.722;9.362;2022-09-30T17:11:28;3.67;;;3.37;;
46589;SDS011;32313;48.722;9.362;2022-09-30T17:13:57;3.90;;;3.40;;
46589;SDS011;32313;48.722;9.362;2022-09-30T17:16:27;3.80;;;3.20;;
46589;SDS011;32313;48.722;9.362;2022-09-30T17:18:53;6.10;;;4.33;;
46589;SDS011;32313;48.722;9.362;2022-09-30T17:21:19;4.20;;;3.70;;
46589;SDS011;32313;48.722;9.362;2022-09-30T17:23:47;4.47;;;3.70;;
46589;SDS011;32313;48.722;9.362;2022-09-30T17:26:13;6.03;;;4.10;;
46589;SDS011;32313;48.722;9.362;2022-09-30T17:28:38;4.07;;;3.67;;
46589;SDS011;32313;48.722;9.362;2022-09-30T17:31:04;7.30;;;4.10;;
46589;SDS011;32313;48.722;9.362;2022-09-30T17:33:32;5.20;;;4.40;;
46589;SDS011;32313;48.722;9.362;2022-09-30T17:36:03;4.53;;;3.87;;
46589;SDS011;32313;48.722;9.362;2022-09-30T17:38:30;4.47;;;3.97;;
46589;SDS011;32313;48.722;9.362;2022-09-30T17:40:57;4.93;;;4.40;;
46589;SDS011;32313;48.722;9.362;2022-09-30T17:43:42;6.87;;;4.80;;
46589;SDS011;32313;48.722;9.362;2022-09-30T17:46:10;5.17;;;4.63;;
46589;SDS011;32313;48.722;9.362;2022-09-30T17:48:36;5.17;;;4.77;;
46589;SDS011;32313;48.722;9.362;2022-09-30T17:51:03;6.33;;;4.93;;
46589;SDS011;32313;48.722;9.362;2022-09-30T17:53:30;4.77;;;4.37;;
46589;SDS011;32313;48.722;9.362;2022-09-30T17:56:00;5.60;;;4.50;;
46589;SDS011;32313;48.722;9.362;2022-09-30T17:58:28;5.27;;;4.80;;
46589;SDS011;32313;48.722;9.362;2022-09-30T18:00:54;5.83;;;5.23;;
46589;SDS011;32313;48.722;9.362;2022-09-30T18:03:23;6.47;;;5.23;;
46589;SDS011;32313;48.722;9.362;2022-09-30T18:05:56;5.90;;;5.27;;
46589;SDS011;32313;48.722;9.362;2022-09-30T18:08:22;6.27;;;5.60;;
46589;SDS011;32313;48.722;9.362;2022-09-30T18:10:49;6.40;;;5.40;;
46589;SDS011;32313;48.722;9.362;2022-09-30T18:13:16;5.77;;;5.17;;
46589;SDS011;32313;48.722;9.362;2022-09-30T18:15:45;10.33;;;5.57;;
46589;SDS011;32313;48.722;9.362;2022-09-30T18:18:11;9.67;;;5.30;;
46589;SDS011;32313;48.722;9.362;2022-09-30T18:20:46;10.43;;;9.50;;
46589;SDS011;32313;48.722;9.362;2022-09-30T18:23:14;7.97;;;7.00;;
46589;SDS011;32313;48.722;9.362;2022-09-30T18:25:43;8.93;;;7.57;;
46589;SDS011;32313;48.722;9.362;2022-09-30T18:28:13;10.33;;;6.83;;
46589;SDS011;32313;48.722;9.362;2022-09-30T18:30:40;6.37;;;5.80;;
46589;SDS011;32313;48.722;9.362;2022-09-30T18:33:06;8.23;;;7.53;;
46589;SDS011;32313;48.722;9.362;2022-09-30T18:35:33;8.90;;;8.07;;
46589;SDS011;32313;48.722;9.362;2022-09-30T18:38:00;10.27;;;9.40;;